Time;durP1;ratioP1;P1;durP2;ratioP2;P2;SDS_P1;SDS_P2;PMS_P1;PMS_P2;Temp;Humidity;BMP_temperature;BMP_pressure;BME280_temperature;BME280_humidity;BME280_pressure;Samples;Min_cycle;Max_cycle;Signal;HPM_P1;HPM_P2
2022/05/05 00:01:38;;;;;;;12.77;8.93;;;;;;;10.90;100.00;94842.28;5075308;28;20204;-61
2022/05/05 00:04:03;;;;;;;11.47;8.77;;;;;;;10.81;100.00;94836.19;5075515;28;20177;-59
2022/05/05 00:06:30;;;;;;;13.43;8.90;;;;;;;10.76;100.00;94840.88;5075201;28;20693;-60
2022/05/05 00:08:56;;;;;;;11.97;8.73;;;;;;;10.72;100.00;94836.97;5075302;28;20184;-60
2022/05/05 00:14:24;;;;;;;9.47;8.47;;;;;;;10.65;100.00;94840.94;5075619;28;20198;-59
2022/05/05 00:17:10;;;;;;;12.70;7.80;;;;;;;10.60;100.00;94830.34;5060106;28;20207;-61
2022/05/05 00:19:38;;;;;;;12.10;8.20;;;;;;;10.54;100.00;94835.13;5074504;28;20188;-61
2022/05/05 00:22:04;;;;;;;9.50;6.93;;;;;;;10.49;100.00;94837.22;5057179;28;20223;-61
2022/05/05 00:24:30;;;;;;;9.63;7.23;;;;;;;10.43;100.00;94843.63;5075003;28;20177;-59
2022/05/05 00:26:56;;;;;;;6.90;6.00;;;;;;;10.41;100.00;94831.97;5057076;28;20211;-62
2022/05/05 00:29:22;;;;;;;6.77;5.30;;;;;;;10.36;100.00;94834.09;5073551;28;20173;-61
2022/05/05 00:31:48;;;;;;;6.40;4.80;;;;;;;10.24;100.00;94835.84;5074830;28;20228;-58
2022/05/05 00:34:14;;;;;;;5.47;3.90;;;;;;;10.20;100.00;94831.16;5074994;28;20177;-59
2022/05/05 00:36:40;;;;;;;7.73;4.43;;;;;;;10.17;100.00;94833.94;5074967;28;20243;-61
2022/05/05 00:39:07;;;;;;;5.13;3.80;;;;;;;10.07;100.00;94836.38;5074717;28;20173;-61
2022/05/05 00:41:38;;;;;;;7.63;3.87;;;;;;;10.11;100.00;94842.88;5073567;28;20213;-60
2022/05/05 00:44:06;;;;;;;4.20;3.80;;;;;;;10.07;100.00;94833.84;5074516;28;20188;-60
2022/05/05 00:46:31;;;;;;;4.07;3.10;;;;;;;10.02;100.00;94838.47;5074764;28;20184;-61
2022/05/05 00:48:57;;;;;;;4.33;3.37;;;;;;;9.89;100.00;94840.38;5074889;28;20275;-61
2022/05/05 00:51:23;;;;;;;4.07;3.40;;;;;;;9.71;100.00;94831.69;5074602;28;20696;-62
2022/05/05 00:53:56;;;;;;;5.20;3.53;;;;;;;9.81;100.00;94832.56;5074405;28;20181;-60
2022/05/05 00:56:23;;;;;;;3.50;3.20;;;;;;;9.95;100.00;94835.63;5074722;28;20204;-60
2022/05/05 00:58:49;;;;;;;4.53;3.20;;;;;;;10.05;100.00;94833.97;5074184;28;20242;-61
2022/05/05 01:01:18;;;;;;;4.37;3.03;;;;;;;10.06;100.00;94838.09;5074334;28;20259;-61
2022/05/05 01:03:44;;;;;;;3.10;2.70;;;;;;;10.04;100.00;94834.88;5074211;28;20216;-62
2022/05/05 01:06:11;;;;;;;5.10;2.90;;;;;;;10.07;100.00;94836.38;5074246;28;20181;-61
2022/05/05 01:08:37;;;;;;;3.67;3.23;;;;;;;9.96;100.00;94834.69;5056164;28;20201;-60
2022/05/05 01:11:03;;;;;;;3.93;2.67;;;;;;;9.83;100.00;94830.72;5074037;28;20216;-61
2022/05/05 01:13:32;;;;;;;4.53;2.83;;;;;;;9.84;100.00;94822.97;5074226;28;20292;-61
2022/05/05 01:15:59;;;;;;;5.93;3.50;;;;;;;9.88;100.00;94826.06;5074241;28;20177;-61
2022/05/05 01:18:25;;;;;;;5.57;3.20;;;;;;;9.99;100.00;94842.06;5073958;28;20297;-62
2022/05/05 01:20:53;;;;;;;4.27;3.23;;;;;;;10.04;100.00;94854.38;5073784;28;20230;-62
2022/05/05 01:23:19;;;;;;;3.73;3.17;;;;;;;10.00;100.00;94856.38;5074033;28;20209;-60
2022/05/05 01:28:31;;;;;;;3.77;3.13;;;;;;;10.13;100.00;94835.94;5074169;28;20215;-62
2022/05/05 01:30:57;;;;;;;4.03;3.67;;;;;;;10.01;100.00;94835.16;5073904;28;20215;-60
2022/05/05 01:33:24;;;;;;;3.33;2.87;;;;;;;9.85;100.00;94854.25;5055935;28;20212;-61
2022/05/05 01:35:52;;;;;;;4.13;3.37;;;;;;;9.76;100.00;94835.47;5073718;28;20230;-61
2022/05/05 01:38:20;;;;;;;5.90;3.10;;;;;;;9.59;100.00;94843.59;5073542;28;20249;-60
2022/05/05 01:40:46;;;;;;;4.27;2.80;;;;;;;9.41;100.00;94849.28;5073818;28;20259;-61
2022/05/05 01:43:16;;;;;;;5.77;2.70;;;;;;;9.28;100.00;94846.88;5073444;28;20197;-57
2022/05/05 01:45:43;;;;;;;2.93;2.10;;;;;;;9.21;100.00;94840.69;5073442;28;20211;-58
2022/05/05 01:48:09;;;;;;;3.53;2.20;;;;;;;9.20;100.00;94839.88;5073469;28;20241;-61
2022/05/05 01:50:35;;;;;;;1.93;1.80;;;;;;;9.10;100.00;94855.88;5073224;28;20301;-59
2022/05/05 01:53:02;;;;;;;2.57;1.53;;;;;;;8.96;100.00;94851.88;5073290;28;20205;-59
2022/05/05 01:55:30;;;;;;;1.90;1.80;;;;;;;8.84;100.00;94846.91;5073060;28;20184;-59
2022/05/05 01:58:03;;;;;;;2.00;1.60;;;;;;;8.79;100.00;94854.84;5073577;28;20227;-60
2022/05/05 02:00:30;;;;;;;1.90;1.80;;;;;;;8.75;100.00;94860.25;5055126;28;20272;-60
2022/05/05 02:02:56;;;;;;;3.30;1.90;;;;;;;8.68;100.00;94854.03;5073328;28;20201;-60
2022/05/05 02:05:21;;;;;;;2.47;1.60;;;;;;;8.65;100.00;94842.38;5073017;28;20561;-59
2022/05/05 02:07:47;;;;;;;2.20;1.73;;;;;;;8.61;100.00;94845.25;5072898;28;20208;-58
2022/05/05 02:10:16;;;;;;;2.10;1.70;;;;;;;8.78;100.00;94844.81;5072653;28;20236;-60
2022/05/05 02:12:43;;;;;;;2.83;1.40;;;;;;;8.74;100.00;94849.31;5072780;28;20204;-60
2022/05/05 02:15:10;;;;;;;2.10;1.90;;;;;;;8.69;100.00;94855.63;5038380;28;20571;-61
2022/05/05 02:17:37;;;;;;;1.73;1.63;;;;;;;8.75;100.00;94855.16;5073016;28;20204;-59
2022/05/05 02:20:05;;;;;;;2.97;1.67;;;;;;;8.68;100.00;94861.63;5072680;28;20172;-61
2022/05/05 02:22:31;;;;;;;1.80;1.70;;;;;;;8.63;100.00;94861.16;5073257;28;20573;-62
2022/05/05 02:24:56;;;;;;;2.33;1.80;;;;;;;8.87;100.00;94864.41;5072602;28;20196;-60
2022/05/05 02:27:22;;;;;;;1.60;1.50;;;;;;;8.93;100.00;94861.41;5054831;28;20223;-62
2022/05/05 02:29:48;;;;;;;3.60;1.57;;;;;;;8.99;100.00;94866.81;5055234;28;20180;-59
2022/05/05 02:32:14;;;;;;;4.13;1.97;;;;;;;9.06;100.00;94869.72;5072447;28;20221;-59
2022/05/05 02:34:40;;;;;;;2.20;2.00;;;;;;;9.08;100.00;94878.00;5072323;28;20231;-60
2022/05/05 02:39:49;;;;;;;4.40;1.87;;;;;;;8.96;100.00;94869.59;5072271;28;20177;-60
2022/05/05 02:42:16;;;;;;;2.10;1.90;;;;;;;9.01;100.00;94875.13;5072505;28;20216;-61
2022/05/05 02:44:42;;;;;;;2.47;1.67;;;;;;;9.05;100.00;94875.72;5072421;28;20268;-62
2022/05/05 02:47:08;;;;;;;2.93;1.87;;;;;;;8.87;100.00;94866.94;5054540;28;20708;-60
2022/05/05 02:49:34;;;;;;;3.10;2.00;;;;;;;8.96;100.00;94878.94;5072302;28;20180;-61
2022/05/05 02:51:59;;;;;;;3.40;1.77;;;;;;;8.97;100.00;94883.06;5072355;28;20674;-62
2022/05/05 02:57:08;;;;;;;2.37;1.97;;;;;;;8.97;100.00;94888.97;5072688;28;20300;-60
2022/05/05 02:59:34;;;;;;;2.63;2.13;;;;;;;8.85;100.00;94889.88;5071863;28;20651;-58
2022/05/05 03:01:59;;;;;;;2.17;1.70;;;;;;;8.81;100.00;94897.81;5072110;28;20279;-60
2022/05/05 03:04:25;;;;;;;2.23;1.67;;;;;;;8.65;100.00;94898.13;5071548;28;20657;-60
2022/05/05 03:06:50;;;;;;;2.10;1.90;;;;;;;8.58;100.00;94896.97;5071892;28;20204;-61
2022/05/05 03:09:16;;;;;;;3.80;2.87;;;;;;;8.44;100.00;94900.50;5071899;28;20181;-60
2022/05/05 03:11:41;;;;;;;10.47;4.43;;;;;;;8.44;100.00;94908.09;5071897;28;20224;-61
2022/05/05 03:14:07;;;;;;;28.10;5.33;;;;;;;8.26;100.00;94904.34;5071977;28;20218;-59
2022/05/05 03:16:32;;;;;;;7.27;5.37;;;;;;;8.06;100.00;94902.41;5053914;28;20213;-60
2022/05/05 03:18:58;;;;;;;7.40;4.80;;;;;;;7.81;100.00;94897.47;5053811;28;20268;-62
2022/05/05 03:21:23;;;;;;;8.00;5.27;;;;;;;7.94;100.00;94913.41;5071701;28;20185;-62
2022/05/05 03:23:48;;;;;;;6.07;5.00;;;;;;;7.75;100.00;94908.03;5071831;28;20181;-61
2022/05/05 03:26:14;;;;;;;6.13;4.77;;;;;;;7.76;100.00;94908.84;5071643;28;20228;-59
2022/05/05 03:28:40;;;;;;;4.63;4.17;;;;;;;7.58;100.00;94908.38;5071745;28;20260;-59
2022/05/05 03:31:08;;;;;;;6.03;3.70;;;;;;;7.70;100.00;94906.69;5071716;28;20208;-61
2022/05/05 03:33:34;;;;;;;3.83;3.43;;;;;;;7.76;100.00;94903.78;5072371;28;20208;-59
2022/05/05 03:36:00;;;;;;;3.80;3.40;;;;;;;7.77;100.00;94912.97;5071716;28;20189;-60
2022/05/05 03:38:26;;;;;;;4.03;3.30;;;;;;;7.77;100.00;94915.50;5071648;28;20200;-62
2022/05/05 03:40:52;;;;;;;4.67;3.47;;;;;;;7.87;100.00;94909.69;5071517;28;20276;-62
2022/05/05 03:43:18;;;;;;;3.77;3.30;;;;;;;7.87;100.00;94912.22;5071660;28;20268;-58
2022/05/05 03:45:43;;;;;;;3.47;2.97;;;;;;;7.81;100.00;94917.72;5071610;28;20177;-59
2022/05/05 03:48:09;;;;;;;7.10;4.10;;;;;;;7.91;100.00;94907.75;5071460;28;20205;-62
2022/05/05 03:50:34;;;;;;;3.80;3.40;;;;;;;7.94;100.00;94912.59;5071412;28;20200;-60
2022/05/05 03:53:00;;;;;;;11.77;8.50;;;;;;;7.99;100.00;94915.59;5071909;28;20209;-58
2022/05/05 03:55:26;;;;;;;8.40;4.67;;;;;;;7.98;100.00;94909.72;5071742;28;20177;-60
2022/05/05 03:57:51;;;;;;;6.10;4.20;;;;;;;8.08;100.00;94920.81;5071994;28;20580;-61
2022/05/05 04:00:19;;;;;;;9.77;5.30;;;;;;;8.07;100.00;94921.75;5071385;28;20173;-59
2022/05/05 04:03:30;;;;;;;16.50;6.63;;;;;;;8.08;100.00;94920.81;5071949;28;20943;-60
2022/05/05 04:05:30;;;;;;;13.47;6.43;;;;;;;8.07;100.00;94921.75;5071523;28;20655;-62
2022/05/05 04:07:55;;;;;;;18.90;7.73;;;;;;;8.10;100.00;94928.34;5072080;28;20550;-61
2022/05/05 04:10:20;;;;;;;23.93;8.97;;;;;;;7.87;100.00;94924.88;5053047;28;20205;-61
2022/05/05 04:12:46;;;;;;;17.37;9.03;;;;;;;7.75;100.00;94932.50;5071577;28;20693;-62
2022/05/05 04:15:11;;;;;;;13.33;7.70;;;;;;;7.95;100.00;94937.81;5071688;28;20588;-61
2022/05/05 04:17:37;;;;;;;15.33;7.77;;;;;;;8.26;100.00;94947.41;5074890;28;20266;-62
2022/05/05 04:20:02;;;;;;;17.73;7.57;;;;;;;8.42;100.00;94940.34;5074861;28;20220;-60
2022/05/05 04:22:28;;;;;;;14.10;7.30;;;;;;;8.63;100.00;94942.22;5076003;28;20295;-61
2022/05/05 04:24:53;;;;;;;20.13;8.53;;;;;;;8.79;100.00;94947.81;5082185;22;20233;-62
2022/05/05 04:27:19;;;;;;;17.17;8.20;;;;;;;8.81;100.00;94951.03;5056921;28;20257;-61
2022/05/05 04:29:44;;;;;;;15.63;8.50;;;;;;;8.32;100.00;94951.25;5075175;28;20177;-60
2022/05/05 04:32:10;;;;;;;14.43;8.20;;;;;;;8.66;100.00;94954.69;5056584;28;20208;-63
2022/05/05 04:34:35;;;;;;;15.53;8.70;;;;;;;8.51;100.00;94954.06;5075034;28;20181;-62
2022/05/05 04:37:01;;;;;;;19.27;9.37;;;;;;;8.30;100.00;94961.47;5074916;28;20197;-60
2022/05/05 04:39:26;;;;;;;20.40;10.57;;;;;;;8.28;100.00;94973.44;5074563;28;20185;-62
2022/05/05 04:41:52;;;;;;;13.10;6.60;;;;;;;8.70;100.00;94971.28;5056494;28;20710;-59
2022/05/05 04:44:17;;;;;;;16.93;10.10;;;;;;;8.69;100.00;94970.47;5074734;28;20200;-60
2022/05/05 04:46:43;;;;;;;30.00;12.50;;;;;;;8.39;100.00;94968.44;5074460;28;20188;-63
2022/05/05 04:49:08;;;;;;;17.77;11.23;;;;;;;8.71;100.00;94965.28;5056670;28;20192;-61
2022/05/05 04:51:34;;;;;;;22.13;11.67;;;;;;;9.14;100.00;94954.44;5074274;28;20212;-61
2022/05/05 04:53:59;;;;;;;16.50;9.17;;;;;;;9.08;100.00;94959.16;5073952;28;20195;-62
2022/05/05 04:56:24;;;;;;;14.30;8.43;;;;;;;9.63;100.00;94951.56;5074162;28;20184;-62
2022/05/05 04:58:50;;;;;;;16.57;9.53;;;;;;;10.33;100.00;94952.00;5056395;28;20284;-60
2022/05/05 05:01:15;;;;;;;9.47;5.70;;;;;;;10.66;100.00;94954.44;5073974;28;20248;-61
2022/05/05 05:03:41;;;;;;;8.87;5.77;;;;;;;10.42;100.00;94965.72;5056121;28;20189;-63
2022/05/05 05:06:10;;;;;;;7.60;5.67;;;;;;;10.16;100.00;94964.44;5073949;28;20181;-61
2022/05/05 05:08:36;;;;;;;6.63;4.87;;;;;;;10.03;100.00;94972.97;5074076;28;20217;-62
2022/05/05 05:11:02;;;;;;;7.27;5.00;;;;;;;9.77;100.00;94958.13;5055922;28;20196;-61
2022/05/05 05:13:28;;;;;;;7.37;4.90;;;;;;;9.68;100.00;94959.63;5073954;28;20204;-61
2022/05/05 05:15:53;;;;;;;7.07;4.87;;;;;;;9.88;100.00;94976.69;5073909;28;20183;-61
2022/05/05 05:18:19;;;;;;;7.47;4.50;;;;;;;9.93;100.00;94967.00;5055391;28;20755;-61
2022/05/05 05:20:44;;;;;;;7.00;4.97;;;;;;;10.61;100.00;94961.59;5073915;28;20185;-61
2022/05/05 05:23:10;;;;;;;5.73;4.43;;;;;;;10.05;100.00;94972.84;5055689;28;20319;-60
2022/05/05 05:25:36;;;;;;;5.83;4.87;;;;;;;9.92;100.00;94989.94;5073824;28;20161;-62
2022/05/05 05:28:01;;;;;;;6.67;4.63;;;;;;;9.68;100.00;94981.66;5054765;28;20291;-61
2022/05/05 05:30:27;;;;;;;5.00;4.37;;;;;;;9.52;100.00;94969.31;5055142;28;20353;-60
2022/05/05 05:32:52;;;;;;;8.17;5.10;;;;;;;9.43;100.00;94979.38;5073425;28;20229;-61
2022/05/05 05:35:18;;;;;;;7.30;5.40;;;;;;;9.22;100.00;94971.63;5073552;28;20173;-60
2022/05/05 05:37:43;;;;;;;9.40;5.70;;;;;;;9.11;100.00;94980.03;5038670;28;20193;-61
2022/05/05 05:40:09;;;;;;;6.87;5.37;;;;;;;9.04;100.00;94983.13;5073360;28;20169;-62
2022/05/05 05:42:35;;;;;;;7.87;6.50;;;;;;;9.18;100.00;94988.00;5073147;28;20211;-61
2022/05/05 05:45:00;;;;;;;8.47;6.40;;;;;;;9.44;100.00;94989.41;5073748;28;20177;-62
2022/05/05 05:47:26;;;;;;;11.10;6.93;;;;;;;9.51;100.00;94988.03;5073145;28;20254;-60
2022/05/05 05:49:51;;;;;;;12.63;7.97;;;;;;;9.57;100.00;94990.09;5073393;28;20176;-61
2022/05/05 05:52:17;;;;;;;12.57;7.27;;;;;;;9.67;100.00;94990.22;5073081;28;20289;-61
2022/05/05 05:54:42;;;;;;;9.20;6.30;;;;;;;9.64;100.00;94978.56;5073555;28;20220;-61
2022/05/05 05:57:08;;;;;;;9.57;6.80;;;;;;;9.75;100.00;94982.81;5073066;28;20713;-61
2022/05/05 05:59:33;;;;;;;8.67;6.73;;;;;;;9.79;100.00;94979.13;5055191;28;20227;-60
2022/05/05 06:04:42;;;;;;;11.80;7.47;;;;;;;10.05;100.00;94981.28;5073214;28;20196;-61
2022/05/05 06:07:08;;;;;;;11.63;7.53;;;;;;;10.17;100.00;94982.09;5073144;28;20670;-60
2022/05/05 06:09:33;;;;;;;11.73;7.53;;;;;;;10.28;100.00;94976.19;5055027;28;20244;-62
2022/05/05 06:12:00;;;;;;;11.20;8.23;;;;;;;10.46;100.00;94984.91;5072659;28;20208;-62
2022/05/05 06:14:25;;;;;;;10.23;7.43;;;;;;;10.58;100.00;94991.56;5073113;28;20259;-61
2022/05/05 06:16:51;;;;;;;12.47;8.23;;;;;;;10.43;100.00;94998.66;5072472;28;20583;-61
2022/05/05 06:19:16;;;;;;;12.33;9.30;;;;;;;10.34;100.00;94984.13;5054755;28;20615;-61
2022/05/05 06:21:41;;;;;;;13.10;9.37;;;;;;;10.30;100.00;94982.75;5072849;28;20204;-61
2022/05/05 06:24:07;;;;;;;14.70;10.10;;;;;;;10.26;100.00;94993.28;5072732;28;20199;-61
2022/05/05 06:26:32;;;;;;;14.17;10.00;;;;;;;10.24;100.00;94987.50;5072253;28;20201;-62
2022/05/05 06:28:58;;;;;;;19.10;10.43;;;;;;;10.30;100.00;94992.13;5054417;28;20185;-62
2022/05/05 06:31:24;;;;;;;16.40;10.00;;;;;;;10.28;100.00;94978.72;5072497;28;20200;-62
2022/05/05 06:33:49;;;;;;;16.43;9.73;;;;;;;10.62;100.00;94987.84;5072299;28;20189;-62
2022/05/05 06:36:16;;;;;;;16.33;11.30;;;;;;;10.74;100.00;94981.78;5072493;28;20188;-63
2022/05/05 06:38:42;;;;;;;17.63;10.20;;;;;;;10.78;100.00;94990.78;5072356;28;20181;-61
2022/05/05 06:41:08;;;;;;;15.63;11.10;;;;;;;10.79;100.00;94989.81;5072350;28;20181;-62
2022/05/05 06:43:36;;;;;;;17.83;11.10;;;;;;;10.84;100.00;94998.72;5072391;28;20293;-63
2022/05/05 06:46:03;;;;;;;18.83;11.20;;;;;;;10.67;100.00;94980.63;5054126;28;20181;-61
2022/05/05 06:48:29;;;;;;;21.70;11.40;;;;;;;10.65;100.00;94983.31;5072235;28;20258;-59
2022/05/05 06:50:54;;;;;;;15.40;10.77;;;;;;;10.78;100.00;94983.13;5080156;22;20204;-63
2022/05/05 06:53:20;;;;;;;16.80;11.10;;;;;;;10.97;100.00;94993.44;5071174;28;20209;-60
2022/05/05 06:55:46;;;;;;;18.17;12.33;;;;;;;10.99;100.00;94984.75;5071829;28;20177;-61
2022/05/05 06:58:12;;;;;;;18.97;10.97;;;;;;;11.22;100.00;94997.34;5071918;28;20618;-61
2022/05/05 07:03:22;;;;;;;16.20;11.03;;;;;;;11.09;100.00;94987.34;5071831;28;20212;-65
2022/05/05 07:05:47;;;;;;;20.77;11.97;;;;;;;11.15;100.00;94991.94;5071915;28;20180;-63
2022/05/05 07:08:13;;;;;;;18.67;11.83;;;;;;;11.39;100.00;95007.75;5071664;28;20284;-62
2022/05/05 07:10:53;;;;;;;17.13;12.10;;;;;;;11.49;100.00;95000.97;5071647;28;20204;-62
2022/05/05 07:13:23;;;;;;;19.57;11.93;;;;;;;11.72;100.00;95004.19;5071773;28;20209;-62
2022/05/05 07:15:49;;;;;;;20.17;11.10;;;;;;;11.82;100.00;95003.28;5071729;28;20231;-62
2022/05/05 07:18:14;;;;;;;20.13;12.90;;;;;;;11.77;100.00;94996.97;5078968;22;20225;-60
2022/05/05 07:20:40;;;;;;;25.37;13.03;;;;;;;11.96;100.00;95003.91;5071542;28;20173;-61
2022/05/05 07:23:10;;;;;;;21.43;13.87;;;;;;;11.93;100.00;95004.13;5071843;28;20196;-62
2022/05/05 07:25:35;;;;;;;18.90;12.77;;;;;;;11.93;100.00;95006.69;5053817;28;20260;-63
2022/05/05 07:28:01;;;;;;;19.73;14.00;;;;;;;12.19;100.00;95018.03;5072132;28;20343;-64
2022/05/05 07:30:27;;;;;;;18.57;13.77;;;;;;;12.29;100.00;95023.94;5071487;28;20201;-62
2022/05/05 07:32:52;;;;;;;21.77;13.13;;;;;;;12.34;100.00;95021.81;5072338;28;20215;-60
2022/05/05 07:35:17;;;;;;;21.30;13.67;;;;;;;12.31;100.00;95012.69;5071978;28;20221;-62
2022/05/05 07:37:44;;;;;;;22.07;13.70;;;;;;;12.29;100.00;95001.00;5072200;28;20286;-60
2022/05/05 07:40:10;;;;;;;21.87;13.43;;;;;;;12.29;100.00;95001.00;5071762;28;20177;-60
2022/05/05 07:42:37;;;;;;;24.40;14.23;;;;;;;12.32;100.00;94998.22;5071980;28;20262;-62
2022/05/05 07:45:04;;;;;;;21.90;14.57;;;;;;;12.37;100.00;94996.06;5071611;28;20184;-62
2022/05/05 07:47:29;;;;;;;25.00;13.60;;;;;;;12.50;100.00;95011.91;5053728;28;20694;-65
2022/05/05 07:49:55;;;;;;;17.13;12.90;;;;;;;12.32;100.00;94995.66;5071843;28;20295;-63
2022/05/05 07:52:20;;;;;;;19.70;12.87;;;;;;;12.52;100.00;94999.84;5056380;28;20220;-61
2022/05/05 07:54:46;;;;;;;19.93;12.63;;;;;;;12.90;100.00;95017.72;5075774;28;20177;-61
2022/05/05 07:57:13;;;;;;;19.80;12.10;;;;;;;13.11;100.00;95033.69;5075809;28;20213;-63
2022/05/05 07:59:40;;;;;;;18.07;11.13;;;;;;;13.15;100.00;95037.59;5075318;28;20234;-62
2022/05/05 08:02:09;;;;;;;13.47;10.10;;;;;;;13.02;100.00;95041.34;5075598;28;20200;-61
2022/05/05 08:04:35;;;;;;;13.90;10.77;;;;;;;12.93;100.00;95022.53;5075227;28;20177;-61
2022/05/05 08:07:00;;;;;;;16.83;11.40;;;;;;;12.85;100.00;95035.16;5082343;22;20224;-61
2022/05/05 08:09:26;;;;;;;15.37;11.50;;;;;;;12.81;100.00;95017.69;5082438;22;20277;-62
2022/05/05 08:11:52;;;;;;;25.53;11.70;;;;;;;13.12;100.00;95017.44;5075260;28;20601;-61
2022/05/05 08:14:17;;;;;;;18.20;11.23;;;;;;;13.34;100.00;95019.69;5057165;28;20200;-61
2022/05/05 08:16:43;;;;;;;12.30;9.97;;;;;;;13.48;100.00;95016.72;5075245;28;20297;-62
2022/05/05 08:19:08;;;;;;;18.47;11.43;;;;;;;13.63;100.00;95037.53;5057256;28;20651;-61
2022/05/05 08:21:34;;;;;;;16.85;11.32;;;;;;;13.69;100.00;95052.28;5075006;28;20208;-62
2022/05/05 08:29:27;;;;;;;19.20;10.55;;;;;;;13.85;100.00;95009.06;5075483;28;20196;-61
2022/05/05 08:31:53;;;;;;;15.93;9.32;;;;;;;14.08;100.00;95088.72;5074602;28;20209;-63
2022/05/05 08:34:19;;;;;;;12.07;9.40;;;;;;;14.01;100.00;95054.47;5074971;28;20183;-63
2022/05/05 08:36:44;;;;;;;12.02;9.00;;;;;;;14.10;100.00;95076.63;5074675;28;20193;-62
2022/05/05 08:39:10;;;;;;;12.55;9.18;;;;;;;14.24;100.00;95022.47;5075014;28;20191;-63
2022/05/05 08:41:38;;;;;;;12.80;8.90;;;;;;;14.53;100.00;95058.94;5056510;28;20197;-61
2022/05/05 08:44:03;;;;;;;11.98;8.95;;;;;;;14.48;100.00;95030.44;5074810;28;20199;-62
2022/05/05 08:46:33;;;;;;;15.70;9.02;;;;;;;14.77;100.00;95030.22;5056407;28;20177;-60
2022/05/05 08:49:03;;;;;;;11.35;8.38;;;;;;;14.99;100.00;95056.19;5063868;22;20682;-60
2022/05/05 08:51:38;;;;;;;13.68;9.57;;;;;;;14.93;100.00;95053.41;5074321;28;20223;-61
2022/05/05 08:54:06;;;;;;;14.90;9.52;;;;;;;15.29;100.00;95016.56;5074445;28;20611;-60
2022/05/05 08:56:32;;;;;;;12.13;8.75;;;;;;;15.42;100.00;95042.66;5074281;28;20646;-61
2022/05/05 08:58:57;;;;;;;15.02;9.50;;;;;;;15.55;100.00;95048.19;5074175;28;20173;-62
2022/05/05 09:01:24;;;;;;;12.45;7.82;;;;;;;15.58;100.00;95052.19;5074339;28;20172;-62
2022/05/05 09:03:49;;;;;;;15.82;7.55;;;;;;;15.70;100.00;95056.13;5072880;28;20205;-61
2022/05/05 09:06:15;;;;;;;14.07;7.93;;;;;;;16.01;100.00;95023.94;5074355;28;20210;-60
2022/05/05 09:08:44;;;;;;;14.45;7.22;;;;;;;16.21;100.00;95137.38;5073849;28;20248;-61
2022/05/05 09:11:18;;;;;;;9.70;7.07;;;;;;;16.19;100.00;95068.25;5073944;28;20228;-62
2022/05/05 09:13:43;;;;;;;16.98;8.63;;;;;;;16.40;100.00;95055.81;5074089;28;20177;-62
2022/05/05 09:16:10;;;;;;;13.82;7.60;;;;;;;16.62;100.00;95093.78;5074102;28;20180;-61
2022/05/05 09:18:37;;;;;;;13.93;7.82;;;;;;;16.91;100.00;95079.78;5073837;28;20197;-64
2022/05/05 09:21:05;;;;;;;10.25;7.00;;;;;;;17.19;100.00;95132.47;5076605;28;20211;-62
2022/05/05 09:26:30;;;;;;;9.60;6.65;;;;;;;17.20;97.38;95116.09;5073574;28;20665;-61
2022/05/05 09:28:57;;;;;;;11.13;7.55;;;;;;;17.38;95.16;95134.75;5073232;28;20689;-61
2022/05/05 09:31:23;;;;;;;13.55;7.00;;;;;;;17.62;100.00;95049.94;5055211;28;20300;-64
2022/05/05 09:33:48;;;;;;;14.45;6.82;;;;;;;17.98;100.00;95016.88;5073626;28;20264;-65
2022/05/05 09:36:16;;;;;;;10.43;6.82;;;;;;;17.93;95.79;95145.22;5073548;28;20191;-60
2022/05/05 09:39:05;;;;;;;13.63;6.60;;;;;;;18.12;94.12;95145.69;5073469;28;20181;-64
2022/05/05 09:41:33;;;;;;;12.00;6.70;;;;;;;17.77;94.63;95125.47;5073365;28;20184;-60
2022/05/05 09:44:13;;;;;;;10.98;8.05;;;;;;;18.30;94.16;95135.22;5073571;28;20189;-61
2022/05/05 09:46:40;;;;;;;17.92;9.05;;;;;;;18.82;98.42;95060.81;5073184;28;20201;-64
2022/05/05 09:49:14;;;;;;;16.13;8.25;;;;;;;18.96;90.60;95181.19;5073397;28;20315;-64
2022/05/05 09:57:41;;;;;;;11.20;6.35;;;;;;;19.64;89.28;95171.81;5073687;28;20284;-62
2022/05/05 10:05:48;;;;;;;11.57;6.93;;;;;;;20.45;85.72;95191.78;5073052;28;20200;-62
2022/05/05 10:08:21;;;;;;;11.90;6.20;;;;;;;20.71;83.20;95159.38;5072725;28;20197;-61
2022/05/05 10:10:47;;;;;;;13.80;5.82;;;;;;;20.91;78.32;95212.13;5054509;28;20236;-62
2022/05/05 10:13:12;;;;;;;9.48;5.47;;;;;;;21.14;77.24;95193.97;5072772;28;20197;-62
2022/05/05 10:15:39;;;;;;;12.40;5.57;;;;;;;21.27;70.40;95302.75;5072273;28;20720;-61
2022/05/05 10:18:05;;;;;;;7.30;4.75;;;;;;;21.31;68.58;95293.63;5054700;28;20714;-62
2022/05/05 10:20:33;;;;;;;7.07;3.47;;;;;;;21.46;66.87;95268.56;5072656;28;20227;-62
2022/05/05 10:23:10;;;;;;;6.85;3.70;;;;;;;21.60;61.73;95318.69;5072274;28;20288;-61
2022/05/05 10:25:37;;;;;;;3.97;2.92;;;;;;;21.90;60.76;95294.38;5072585;28;20175;-61
2022/05/05 10:28:23;;;;;;;5.13;3.30;;;;;;;21.65;53.53;95293.06;5072783;28;20219;-61
2022/05/05 10:30:49;;;;;;;3.97;2.20;;;;;;;21.75;55.92;95219.28;5072098;28;20200;-62
2022/05/05 10:33:14;;;;;;;3.20;2.10;;;;;;;21.90;51.73;95288.41;5054380;28;20203;-64
2022/05/05 10:35:48;;;;;;;5.18;3.55;;;;;;;21.60;53.43;95234.09;5072105;28;20169;-61
2022/05/05 10:38:42;;;;;;;4.82;3.25;;;;;;;21.27;54.98;95194.09;5072261;28;20204;-64
2022/05/05 10:41:37;;;;;;;6.57;3.83;;;;;;;21.41;60.95;95092.34;5069875;28;20591;-64
2022/05/05 10:44:21;;;;;;;6.35;3.22;;;;;;;21.07;56.59;95167.19;5063018;28;20211;-63
2022/05/05 10:46:53;;;;;;;5.32;2.92;;;;;;;21.85;56.31;95167.25;5054185;28;20216;-64
2022/05/05 10:49:33;;;;;;;5.97;3.20;;;;;;;22.28;53.14;95241.34;5055601;28;20188;-64
2022/05/05 10:52:21;;;;;;;5.82;2.90;;;;;;;22.42;56.87;95147.16;5072253;28;20216;-60
2022/05/05 10:54:48;;;;;;;11.07;3.08;;;;;;;22.71;55.81;95169.50;5016141;28;20189;-62
2022/05/05 10:57:26;;;;;;;4.00;2.25;;;;;;;22.81;51.29;95257.31;5073142;28;20296;-64
2022/05/05 11:00:13;;;;;;;3.28;2.75;;;;;;;22.86;49.08;95271.31;5072214;28;20185;-60
2022/05/05 11:03:00;;;;;;;6.90;2.60;;;;;;;22.73;49.52;95254.84;5073016;28;20201;-63
2022/05/05 11:05:35;;;;;;;3.55;2.50;;;;;;;23.31;48.77;95252.63;5072286;28;20271;-65
2022/05/05 11:08:08;;;;;;;3.00;2.50;;;;;;;23.58;50.92;95209.41;5072649;28;20709;-64
2022/05/05 11:10:45;;;;;;;6.75;2.58;;;;;;;23.98;48.17;95262.22;5053727;28;20622;-65
2022/05/05 11:13:47;;;;;;;3.42;1.90;;;;;;;24.04;45.29;95282.25;5072027;28;20285;-62
2022/05/05 11:22:31;;;;;;;3.55;3.22;;;;;;;23.14;44.75;95251.34;5072186;28;20239;-60
2022/05/05 11:24:57;;;;;;;5.75;2.42;;;;;;;22.76;45.61;95229.38;5071796;28;20176;-60
2022/05/05 11:27:24;;;;;;;7.00;2.30;;;;;;;21.85;46.88;95176.81;5053275;28;20213;-64
2022/05/05 11:29:55;;;;;;;3.42;2.10;;;;;;;21.56;48.29;95162.97;5071863;28;20181;-61
2022/05/05 11:32:27;;;;;;;1.98;1.60;;;;;;;21.68;48.22;95163.28;5072210;28;20234;-61
2022/05/05 11:34:59;;;;;;;5.78;2.00;;;;;;;21.26;49.75;95137.38;5072208;28;20165;-64
2022/05/05 11:37:26;;;;;;;2.53;1.85;;;;;;;20.95;48.05;95173.00;5072840;28;20254;-68
2022/05/05 11:39:52;;;;;;;3.65;2.10;;;;;;;21.47;47.67;95179.59;5071605;28;20262;-61
2022/05/05 11:42:18;;;;;;;2.03;1.73;;;;;;;22.02;50.34;95121.19;5071960;28;20193;-62
2022/05/05 11:44:45;;;;;;;2.78;2.00;;;;;;;22.33;50.17;95135.34;5071941;28;20634;-63
2022/05/05 11:47:11;;;;;;;3.05;1.60;;;;;;;22.34;46.28;95200.94;5072131;28;20200;-62
2022/05/05 11:49:38;;;;;;;2.08;1.67;;;;;;;22.40;45.38;95213.16;5072020;28;20664;-66
2022/05/05 11:52:04;;;;;;;5.93;1.60;;;;;;;22.68;46.33;95193.22;5071940;28;20220;-61
2022/05/05 11:54:35;;;;;;;2.08;1.55;;;;;;;22.66;46.08;95187.44;5053603;28;20207;-61
2022/05/05 11:57:01;;;;;;;3.92;1.42;;;;;;;22.66;46.92;95176.25;5053339;28;20266;-61
2022/05/05 12:02:20;;;;;;;2.33;1.45;;;;;;;21.97;42.66;95250.41;5072101;28;20211;-62
2022/05/05 12:04:52;;;;;;;3.38;1.77;;;;;;;22.07;43.57;95210.28;5071420;28;20192;-63
2022/05/05 12:07:23;;;;;;;4.65;1.88;;;;;;;22.84;45.14;95173.97;5079021;22;20221;-61
2022/05/05 12:09:58;;;;;;;4.35;2.03;;;;;;;23.25;44.88;95188.50;5071445;28;20549;-62
2022/05/05 12:12:26;;;;;;;4.28;1.80;;;;;;;23.74;44.51;95197.84;5071730;28;20264;-61